This is the latest recevied weather packets stored in our database for station/object CT1ETE-13. If no packets are shown the sender has not sent any weather packets the latest 10 day(s).
| Time | Temp. | Humidity | Pressure | Rain* | Wind** | Luminosity | Snow |
|---|---|---|---|---|---|---|---|
| 1788137820 | 15.56° C | 74% | 1021.4 hPa | 0 mm | - | 1700 W/m² | - |
| 1788136919 | 15.56° C | 77% | 1021.6 hPa | 0 mm | - | 1698 W/m² | - |
| 1788136018 | 15.56° C | 79% | 1021.7 hPa | 0 mm | - | 1698 W/m² | - |
| 1788135118 | 15.56° C | 80% | 1021.8 hPa | 0 mm | - | 1696 W/m² | - |
| 1788134215 | 15.56° C | 80% | 1021.8 hPa | 0 mm | - | 1695 W/m² | - |
| 1788133313 | 16.11° C | 80% | 1021.9 hPa | 0 mm | - | 1695 W/m² | - |
| 1788132413 | 16.11° C | 81% | 1021.9 hPa | 0 mm | - | 1695 W/m² | - |
| 1788131511 | 16.11° C | 81% | 1022 hPa | 0 mm | - | 1695 W/m² | - |
| 1788130611 | 16.11° C | 82% | 1022.1 hPa | 0 mm | - | 1695 W/m² | - |
| 1788129712 | 16.11° C | 82% | 1022.1 hPa | 0 mm | - | 1695 W/m² | - |
| 1788128810 | 16.11° C | 83% | 1022 hPa | 0 mm | - | 1695 W/m² | - |
| 1788127919 | 16.67° C | 83% | 1022 hPa | 0 mm | - | 1693 W/m² | - |
| 1788127067 | 16.67° C | 83% | 1022 hPa | 0 mm | - | 1693 W/m² | - |
| 1788126108 | 16.67° C | 83% | 1022 hPa | 0 mm | - | 1693 W/m² | - |
| 1788125206 | 16.67° C | 84% | 1021.9 hPa | 0 mm | - | 1691 W/m² | - |
| 1788124302 | 16.67° C | 83% | 1021.8 hPa | 0 mm | - | 1691 W/m² | - |
| 1788123401 | 17.22° C | 84% | 1021.7 hPa | 0 mm | - | 1691 W/m² | - |
| 1788122501 | 17.22° C | 84% | 1021.4 hPa | 0 mm | - | 1689 W/m² | - |
| 1788121659 | 17.22° C | 83% | 1021.3 hPa | 0 mm | - | 1693 W/m² | - |
| 1788120759 | 17.78° C | 83% | 1021.2 hPa | 0 mm | - | 1693 W/m² | - |
| 1788119799 | 18.33° C | 81% | 1021 hPa | 0 mm | - | 1714 W/m² | - |
| 1788118907 | 18.89° C | 80% | 1020.9 hPa | 0 mm | - | 1710 W/m² | - |
| 1788118059 | 18.89° C | 78% | 1020.7 hPa | 0 mm | - | 1702 W/m² | - |
| 1788117099 | 19.44° C | 76% | 1020.4 hPa | 0 mm | - | 1688 W/m² | - |
| 1788116199 | 20.56° C | 73% | 1020.4 hPa | 0 mm | - | 1707 W/m² | - |
* Rain latest hour (hover to see other rain measurements)
** Current wind speed in m/s (hover to see current wind gust speed)